• Join FlightAware (Why Join?)
  • Login
  • US Flag 
12:08AM EDT


 

Airport Tracker/Info


-or-


 

Live Flight TrackerFlight Track Log ✈ SKW5516 ✈ 12-Jun-2013 ✈ KIAD - KSAT

Flight Track Log - Related Links

Times and Time Zones

All times are in EDT time to prevent confusion due to time zone crossing. See the SKW5516 flight status page for this flight to view local times or setup timezone preferences in your user account.

Time Position Orientation Groundspeed Altitude Reporting Facility
EDT Latitude Longitude Course Direction KTS MPH feet Rate Location/Type
08:48AM 38.9500 -77.5167 270° West 170 196 1,500  Level Potomac TRACON
08:49AM 38.9500 -77.5833 270° West 227 261 3,200 1,920 Climbing Potomac TRACON
08:50AM 38.9167 -77.6667 243° Southwest 250 288 5,200 2,100 Climbing Potomac TRACON
08:50AM 38.9031 -77.7069 247° West 276 318 6,300 2,460 Climbing Washington Center
08:51AM 38.8933 -77.7894 261° West 286 329 8,900 2,520 Climbing Washington Center
08:52AM 38.8831 -77.8931 263° West 276 318 11,400 1,680 Climbing Washington Center
08:53AM 38.8728 -77.9942 263° West 276 318 12,400 1,380 Climbing Washington Center
08:54AM 38.8642 -78.1058 264° West 298 343 14,200 1,800 Climbing Washington Center
08:55AM 38.8533 -78.2228 263° West 319 367 16,000 1,320 Climbing Washington Center
08:56AM 38.8533 -78.3186 270° West 330 380 17,000 1,380 Climbing Washington Center
08:57AM 38.8519 -78.4653 269° West 335 386 18,800 1,560 Climbing Washington Center
08:58AM 38.8511 -78.5906 270° West 347 399 20,200 1,260 Climbing Washington Center
08:59AM 38.8497 -78.7183 269° West 353 406 21,400 1,260 Climbing Washington Center
09:00AM 38.8483 -78.8489 269° West 365 420 22,700 1,140 Climbing Washington Center
09:01AM 38.8469 -78.9822 269° West 370 426 23,800 1,140 Climbing Washington Center
09:02AM 38.8431 -79.1153 268° West 370 426 25,000 1,020 Climbing Washington Center
09:03AM 38.8389 -79.2536 268° West 375 432 25,900 1,020 Climbing Washington Center
09:04AM 38.8347 -79.3894 268° West 385 443 27,100 1,020 Climbing Washington Center
09:05AM 38.8344 -79.5306 270° West 385 443 28,000 840 Climbing Washington Center
09:06AM 38.8278 -79.6661 266° West 398 458 28,800 840 Climbing Washington Center
09:07AM 38.8181 -79.8256 266° West 406 467 29,800 900 Climbing Washington Center
09:08AM 38.8147 -79.9719 268° West 406 467 30,700 960 Climbing Washington Center
09:09AM 38.8117 -80.1131 268° West 406 467 31,800 1,020 Climbing Washington Center
09:10AM 38.8061 -80.2442 267° West 397 457 32,900 840 Climbing Indianapolis Center
09:11AM 38.8033 -80.3842 269° West 393 452 33,600 720 Climbing Indianapolis Center
09:12AM 38.7989 -80.5511 268° West 392 451 34,400 660 Climbing Indianapolis Center
09:13AM 38.7964 -80.6919 269° West 395 455 35,000 480 Climbing Indianapolis Center
09:14AM 38.7658 -80.8311 254° West 411 473 35,500 540 Climbing Indianapolis Center
09:16AM 38.7247 -80.9683 249° West 411 473 36,200 660 Climbing Indianapolis Center
09:17AM 38.6842 -81.1036 249° West 406 467 36,900 360 Climbing Indianapolis Center
09:18AM 38.6264 -81.2325 240° Southwest 414 476 37,000  Climbing Indianapolis Center
09:19AM 38.5628 -81.3633 238° Southwest 425 489 37,000  Level Indianapolis Center
09:20AM 38.4978 -81.5006 239° Southwest 439 505 37,000  Level Indianapolis Center
09:21AM 38.4322 -81.6381 239° Southwest 446 513 37,000  Level Indianapolis Center
09:22AM 38.3544 -81.8019 239° Southwest 449 517 37,000  Level Indianapolis Center
09:23AM 38.2908 -81.9394 240° Southwest 449 517 37,000  Level Indianapolis Center
09:24AM 38.2253 -82.0756 239° Southwest 452 520 37,000 480 Level Indianapolis Center
09:25AM 38.1642 -82.2108 240° Southwest 444 511 38,000 480 Climbing Indianapolis Center
09:26AM 38.1025 -82.3644 243° Southwest 433 498 38,000  Level Indianapolis Center
09:27AM 38.0492 -82.4981 243° Southwest 427 491 38,000  Level Indianapolis Center
09:28AM 37.9944 -82.6344 243° Southwest 433 498 38,000  Level Indianapolis Center
09:29AM 37.9394 -82.7700 243° Southwest 433 498 38,000  Level Indianapolis Center
09:30AM 37.8847 -82.9067 243° Southwest 435 501 38,000  Level Indianapolis Center
09:31AM 37.8203 -83.0647 243° Southwest 436 502 38,000  Level Indianapolis Center
09:32AM 37.7658 -83.1989 243° Southwest 431 496 38,000  Level Indianapolis Center
09:33AM 37.7111 -83.3342 243° Southwest 432 497 38,000  Level Indianapolis Center
09:34AM 37.6550 -83.4697 242° Southwest 436 502 38,000  Level Indianapolis Center
09:35AM 37.5986 -83.6039 242° Southwest 435 501 38,000  Level Indianapolis Center
09:36AM 37.5339 -83.7622 243° Southwest 437 503 38,000  Level Indianapolis Center
09:37AM 37.4761 -83.8986 242° Southwest 441 507 38,000  Level Indianapolis Center
09:38AM 37.4194 -84.0347 242° Southwest 441 507 38,000  Level Indianapolis Center
09:39AM 37.3636 -84.1714 243° Southwest 440 506 38,000  Level Indianapolis Center
09:40AM 37.3058 -84.3069 242° Southwest 442 509 38,000  Level Indianapolis Center
09:41AM 37.2378 -84.4672 242° Southwest 443 510 38,000  Level Indianapolis Center
09:42AM 37.1800 -84.6036 242° Southwest 444 511 38,000  Level Indianapolis Center
09:43AM 37.1217 -84.7417 242° Southwest 446 513 38,000  Level Indianapolis Center
09:44AM 37.0636 -84.8775 242° Southwest 445 512 38,000  Level Indianapolis Center
09:45AM 36.9942 -85.0353 241° Southwest 447 514 38,000  Level Indianapolis Center
09:47AM 36.9347 -85.1731 242° Southwest 450 518 38,000  Level Indianapolis Center
09:48AM 36.8756 -85.3097 242° Southwest 450 518 38,000  Level Indianapolis Center
09:49AM 36.8156 -85.4475 241° Southwest 452 520 38,000  Level Indianapolis Center
09:50AM 36.7544 -85.5858 241° Southwest 457 526 38,000  Level Indianapolis Center
09:51AM 36.6953 -85.7219 242° Southwest 451 519 38,000  Level Indianapolis Center
09:52AM 36.6289 -85.8708 241° Southwest 454 522 38,000  Level Indianapolis Center
09:53AM 36.5672 -86.0097 241° Southwest 455 524 38,000  Level Indianapolis Center
09:54AM 36.5019 -86.1517 240° Southwest 453 521 38,000  Level Memphis Center
09:55AM 36.4400 -86.2917 241° Southwest 453 521 38,000  Level Memphis Center
09:56AM 36.3778 -86.4261 240° Southwest 453 521 38,000  Level Memphis Center
09:57AM 36.3172 -86.5578 240° Southwest 453 521 38,000  Level Memphis Center
09:58AM 36.2583 -86.6842 240° Southwest 453 521 38,000  Level Memphis Center
09:59AM 36.1894 -86.8236 239° Southwest 469 540 38,000  Level Memphis Center
10:00AM 36.1331 -86.9672 244° Southwest 476 548 38,000  Level Memphis Center
10:01AM 36.0661 -87.1164 241° Southwest 463 533 38,000  Level Memphis Center
10:02AM 36.0031 -87.2550 241° Southwest 463 533 38,000  Level Memphis Center
10:03AM 35.9394 -87.3906 240° Southwest 463 533 38,000  Level Memphis Center
10:04AM 35.8761 -87.5289 241° Southwest 468 539 38,000  Level Memphis Center
10:05AM 35.8144 -87.6664 241° Southwest 462 532 38,000  Level Memphis Center
10:06AM 35.7506 -87.7992 239° Southwest 467 537 38,000  Level Memphis Center
10:07AM 35.6844 -87.9367 239° Southwest 467 537 38,000  Level Memphis Center
10:08AM 35.6225 -88.0739 241° Southwest 467 537 38,000  Level Memphis Center
10:09AM 35.5581 -88.2006 238° Southwest 458 527 38,000  Level Memphis Center
10:10AM 35.4933 -88.3322 239° Southwest 453 521 38,000  Level Memphis Center
10:11AM 35.4350 -88.4561 240° Southwest 453 521 38,000  Level Memphis Center
10:12AM 35.3642 -88.6078 240° Southwest 463 533 38,000  Level Memphis Center
10:13AM 35.3075 -88.7261 240° Southwest 469 540 38,000  Level Memphis Center
10:14AM 35.2403 -88.8622 239° Southwest 469 540 38,000  Level Memphis Center
10:15AM 35.1750 -88.9981 240° Southwest 469 540 38,000  Level Memphis Center
10:16AM 35.1117 -89.1311 240° Southwest 463 533 38,000  Level Memphis Center
10:17AM 35.0442 -89.2664 239° Southwest 463 533 38,000  Level Memphis Center
10:18AM 34.9786 -89.3964 238° Southwest 469 540 38,000  Level Memphis Center
10:19AM 34.9067 -89.5417 239° Southwest 464 534 38,000  Level Memphis Center
10:20AM 34.8428 -89.6689 239° Southwest 464 534 38,000  Level Memphis Center
10:21AM 34.7744 -89.8008 238° Southwest 470 541 38,000  Level Memphis Center
10:22AM 34.7083 -89.9453 241° Southwest 499 574 38,000  Level Memphis Center
10:23AM 34.6439 -90.0769 239° Southwest 481 554 38,000  Level Memphis Center
10:24AM 34.5775 -90.2083 238° Southwest 467 537 38,000  Level Memphis Center
10:25AM 34.5025 -90.3319 234° Southwest 462 532 38,000  Level Memphis Center
10:26AM 34.4189 -90.4478 229° Southwest 462 532 38,000  Level Memphis Center
10:27AM 34.3353 -90.5633 229° Southwest 462 532 38,000  Level Memphis Center
10:28AM 34.2433 -90.6939 230° Southwest 462 532 38,000  Level Memphis Center
10:29AM 34.1572 -90.8089 228° Southwest 462 532 38,000  Level Memphis Center
10:30AM 34.0733 -90.9264 229° Southwest 462 532 38,000  Level Memphis Center
10:31AM 33.9872 -91.0411 228° Southwest 462 532 38,000  Level Memphis Center
10:32AM 33.9031 -91.1581 229° Southwest 462 532 38,000  Level Memphis Center
10:33AM 33.8167 -91.2722 228° Southwest 462 532 38,000  Level Memphis Center
10:34AM 33.7428 -91.3764 230° Southwest 462 532 38,000  Level Memphis Center
10:35AM 33.6542 -91.4928 228° Southwest 467 537 38,000  Level Memphis Center
10:37AM 33.4636 -91.7567 229° Southwest 462 532 38,000  Level Fort Worth Center
10:38AM 33.3769 -91.8717 228° Southwest 467 537 38,000  Level Fort Worth Center
10:39AM 33.2903 -91.9889 229° Southwest 473 544 38,000  Level Fort Worth Center
10:40AM 33.2014 -92.1061 228° Southwest 478 550 38,000  Level Fort Worth Center
10:41AM 33.1044 -92.2333 228° Southwest 478 550 38,000  Level Fort Worth Center
10:42AM 33.0133 -92.3525 228° Southwest 478 550 38,000  Level Fort Worth Center
10:43AM 32.9261 -92.4689 228° Southwest 483 556 38,000  Level Fort Worth Center
10:44AM 32.8347 -92.5850 227° Southwest 483 556 38,000  Level Fort Worth Center
10:45AM 32.7453 -92.7011 228° Southwest 483 556 38,000  Level Fort Worth Center
10:46AM 32.6556 -92.8192 228° Southwest 489 563 38,000  Level Fort Worth Center
10:47AM 32.5636 -92.9347 227° Southwest 489 563 38,000  Level Fort Worth Center
10:48AM 32.4758 -93.0500 228° Southwest 482 555 38,000  Level Fort Worth Center
10:49AM 32.3842 -93.1700 228° Southwest 487 560 38,000  Level Fort Worth Center
10:50AM 32.2939 -93.2822 226° Southwest 487 560 38,000  Level Fort Worth Center
10:50AM 32.2881 -93.2969 245° Southwest 480 552 38,000  Level Houston Center
10:51AM 32.2033 -93.3919 224° Southwest 487 560 38,000  Level Fort Worth Center
10:52AM 32.1233 -93.5011 229° Southwest 481 554 38,000  Level Fort Worth Center
10:52AM 32.0875 -93.5378 221° Southwest 467 537 38,000  Level Houston Center
10:53AM 31.9981 -93.6456 226° Southwest 465 535 38,000  Level Houston Center
10:54AM 31.9069 -93.7528 225° Southwest 463 533 38,000  Level Houston Center
10:55AM 31.8169 -93.8586 225° Southwest 461 531 38,000  Level Houston Center
10:56AM 31.7203 -93.9728 225° Southwest 459 528 38,000  Level Houston Center
10:57AM 31.6300 -94.0789 225° Southwest 459 528 38,000  Level Houston Center
10:58AM 31.5189 -94.2064 224° Southwest 464 534 38,000  Level Houston Center
10:59AM 31.4286 -94.3125 225° Southwest 461 531 38,000  Level Houston Center
11:01AM 31.3369 -94.4189 225° Southwest 461 531 38,000  Level Houston Center
11:02AM 31.2442 -94.5239 224° Southwest 463 533 38,000  Level Houston Center
11:03AM 31.1486 -94.6306 224° Southwest 465 535 38,000  Level Houston Center
11:04AM 31.0533 -94.7414 225° Southwest 477 549 38,000  Level Houston Center
11:05AM 30.9619 -94.8489 225° Southwest 466 536 38,000  Level Houston Center
11:06AM 30.8717 -94.9542 225° Southwest 460 529 38,000  Level Houston Center
11:07AM 30.7797 -95.0592 224° Southwest 461 531 38,000  Level Houston Center
11:08AM 30.6700 -95.1836 224° Southwest 458 527 38,000  Level Houston Center
11:09AM 30.5781 -95.2872 224° Southwest 459 528 38,000  Level Houston Center
11:10AM 30.4864 -95.3911 224° Southwest 459 528 38,000  Level Houston Center
11:11AM 30.3942 -95.4964 225° Southwest 459 528 38,000  Level Houston Center
11:12AM 30.3044 -95.5989 225° Southwest 456 525 38,000  Level Houston Center
11:13AM 30.2136 -95.7014 224° Southwest 458 527 38,000  Level Houston Center
11:14AM 30.1219 -95.8011 223° Southwest 456 525 38,000  Level Houston Center
11:15AM 30.0133 -95.9217 224° Southwest 455 524 38,000  Level Houston Center
11:16AM 29.9150 -96.0306 224° Southwest 456 525 38,000  Level Houston Center
11:17AM 29.8303 -96.1386 228° Southwest 457 526 38,000  Level Houston Center
11:18AM 29.7919 -96.2747 252° West 454 522 38,000 -600 Level Houston Center
11:19AM 29.7978 -96.4206 273° West 462 532 36,800 -1,500 Descending Houston Center
11:20AM 29.8083 -96.5661 275° West 461 531 34,900 -2,040 Descending Houston Center
11:21AM 29.8217 -96.7414 275° West 463 533 32,600 -2,160 Descending Houston Center
11:22AM 29.8319 -96.8886 275° West 465 535 30,500 -2,460 Descending Houston Center
11:23AM 29.8422 -97.0381 275° West 472 543 27,600 -2,820 Descending Houston Center
11:24AM 29.8531 -97.1839 275° West 463 533 24,700 -2,760 Descending Houston Center
11:25AM 29.8617 -97.3244 274° West 448 516 21,900 -3,060 Descending Houston Center
11:26AM 29.8728 -97.4861 275° West 427 491 18,400 -3,120 Descending Houston Center
11:27AM 29.8817 -97.6217 274° West 407 468 15,500 -2,640 Descending Houston Center
11:28AM 29.8903 -97.7481 275° West 397 457 13,000 -1,560 Descending Houston Center
11:29AM 29.8947 -97.8211 274° West 382 440 13,000  Level Houston Center
11:30AM 29.8908 -97.8756 265° West 374 430 13,000  Level Houston Center
11:30AM 29.8658 -97.9358 244° Southwest 376 433 13,000 -600 Level Houston Center
11:31AM 29.8442 -97.9867 244° Southwest 386 444 12,400 -1,740 Descending Houston Center
11:31AM 29.8164 -98.0553 245° Southwest 388 447 11,300 -1,980 Descending Houston Center
11:32AM 29.7944 -98.1050 243° Southwest 384 442 10,400 -1,620 Descending Houston Center
11:32AM 29.7717 -98.1594 244° Southwest 359 413 9,700 -720 Descending Houston Center
11:33AM 29.7542 -98.2008 244° Southwest 334 384 9,700 -600 Level Houston Center
11:33AM 29.7375 -98.2431 246° West 272 313 9,100 -1,260 Descending Houston Center
11:34AM 29.7194 -98.2864 244° Southwest 278 320 8,400 -1,320 Descending Houston Center
11:34AM 29.7200 -98.3269 271° West 274 315 7,800 -1,260 Descending Houston Center
11:35AM 29.7164 -98.3781 265° West 289 333 7,100 -1,320 Descending Houston Center
11:35AM 29.7161 -98.4189 270° West 292 336 6,500 -1,380 Descending Houston Center
11:36AM 29.7133 -98.4744 267° West 285 328 5,700 -1,380 Descending Houston Center
11:36AM 29.7119 -98.5133 268° West 271 312 5,100 -1,380 Descending Houston Center
11:37AM 29.7100 -98.5572 267° West 262 302 4,300 -1,620 Descending Houston Center
11:37AM 29.7069 -98.5956 265° West 265 305 3,500 -1,260 Descending Houston Center
11:38AM 29.6758 -98.6247 219° Southwest 245 282 3,000 -600 Descending Houston Center
11:38AM 29.6550 -98.6236 177° South 206 237 2,900 -240 Descending Houston Center
11:39AM 29.6350 -98.5953 129° Southeast 189 217 2,800  Descending Houston Center
11:39AM 29.6219 -98.5842 144° Southeast 156 180 2,900 -120 Climbing Houston Center
11:40AM 29.5994 -98.5575 134° Southeast 165 190 2,700 -420 Descending Houston Center
11:40AM 29.5914 -98.5494 139° Southeast 150 173 2,500 -780 Descending Houston Center
11:41AM 29.5731 -98.5239 130° Southeast 144 166 1,900 -1,020 Descending Houston Center
11:41AM 29.5631 -98.5144 141° Southeast 133 153 1,500 -900 Descending Houston Center
11:42AM 29.5478 -98.4900 126° Southeast 133 153 1,000 -720 Descending Houston Center